Terminal Aerodrome Forecast
Issued by NWS Portland, OR

Home | Current Version | Previous Version | Text Only | Print | Product List | Glossary On
Versions: 1 2 3 4 5 6 7 8 9 10 11 12 13 14 15 16 17 18 19 20 21 22 23 24 25 26 27 28 29 30 31 32
000
FTUS46 KPQR 231345 AAA
TAFTTD
TAF AMD
KTTD 231345Z 2314/2412 VRB03KT P6SM BKN025 OVC035
      TEMPO 2314/2316 -DZRA BKN007 BKN015 OVC025
     FM231900 30004KT P6SM BKN015 OVC025
     FM232300 34007KT P6SM OVC050
     FM240600 00000KT P6SM OVC015=

USA.gov is the U.S. government's official web portal to all federal, state and local government web resources and services.